Time;durP1;ratioP1;P1;durP2;ratioP2;P2;SDS_P1;SDS_P2;PMS_P1;PMS_P2;Temp;Humidity;BMP_temperature;BMP_pressure;BME280_temperature;BME280_humidity;BME280_pressure;Samples;Min_cycle;Max_cycle;Signal;HPM_P1;HPM_P2
2024/01/23 00:01:43;;;;;;;4.88;1.20;;;8.40;99.90;;;;;;10376863;28;20029;-69
2024/01/23 00:06:43;;;;;;;4.25;1.60;;;8.40;99.90;;;;;;10373119;28;20034;-70
2024/01/23 00:11:44;;;;;;;5.82;1.13;;;8.40;99.90;;;;;;10372602;28;20109;-70
2024/01/23 00:16:45;;;;;;;3.03;0.80;;;8.40;99.90;;;;;;10372099;28;20429;-70
2024/01/23 00:21:45;;;;;;;1.83;0.70;;;8.40;99.90;;;;;;10375666;28;20021;-69
2024/01/23 00:26:46;;;;;;;5.68;0.95;;;8.40;99.90;;;;;;10374544;28;20022;-69
2024/01/23 00:31:46;;;;;;;6.65;1.10;;;8.40;99.90;;;;;;10370681;28;20020;-70
2024/01/23 00:36:47;;;;;;;3.90;0.80;;;8.40;99.90;;;;;;10374324;28;20524;-70
2024/01/23 00:41:48;;;;;;;4.05;1.10;;;8.40;99.90;;;;;;10382324;28;20030;-69
2024/01/23 00:46:48;;;;;;;6.25;0.88;;;8.40;99.90;;;;;;10377873;28;20105;-69
2024/01/23 00:51:49;;;;;;;6.20;1.30;;;8.40;99.90;;;;;;10375624;28;20494;-69
2024/01/23 00:56:49;;;;;;;6.05;1.05;;;8.40;99.90;;;;;;10374470;28;20083;-70
2024/01/23 01:01:50;;;;;;;5.38;1.00;;;8.40;99.90;;;;;;10374460;28;20038;-70
2024/01/23 01:06:51;;;;;;;6.70;1.20;;;9.50;99.90;;;;;;10378616;28;20032;-70
2024/01/23 01:11:51;;;;;;;3.53;0.80;;;8.40;99.90;;;;;;10375282;28;20030;-69
2024/01/23 01:16:52;;;;;;;3.30;0.80;;;8.30;99.90;;;;;;10375846;28;20033;-70
2024/01/23 01:21:52;;;;;;;3.33;0.90;;;8.30;99.90;;;;;;10372087;28;20020;-70
2024/01/23 01:26:53;;;;;;;4.43;0.90;;;8.30;99.90;;;;;;10375674;28;20041;-70
2024/01/23 01:31:54;;;;;;;3.83;0.70;;;8.30;99.90;;;;;;10375181;28;20095;-69
2024/01/23 01:36:54;;;;;;;3.22;1.00;;;8.30;99.90;;;;;;10381854;28;20056;-70
2024/01/23 01:41:55;;;;;;;3.60;0.80;;;8.30;99.90;;;;;;10381164;28;20513;-70
2024/01/23 01:46:56;;;;;;;2.83;0.82;;;8.30;99.90;;;;;;10386142;28;20025;-70
2024/01/23 01:51:57;;;;;;;1.63;0.60;;;8.30;99.90;;;;;;10384839;28;20025;-70
2024/01/23 01:57:00;;;;;;;3.20;0.70;;;8.30;99.90;;;;;;10386057;28;20099;-69
2024/01/23 02:02:02;;;;;;;6.07;1.13;;;8.30;99.90;;;;;;10385120;28;20247;-70
2024/01/23 02:07:02;;;;;;;3.92;0.98;;;8.30;99.90;;;;;;10382941;28;20068;-70
2024/01/23 02:12:07;;;;;;;3.00;0.88;;;8.30;99.90;;;;;;10386189;28;20113;-70
2024/01/23 02:17:07;;;;;;;6.40;1.08;;;8.30;99.90;;;;;;10384779;28;20038;-70
2024/01/23 02:22:08;;;;;;;1.65;0.70;;;8.30;99.90;;;;;;10390217;28;20064;-70
2024/01/23 02:27:09;;;;;;;5.53;1.15;;;8.30;99.90;;;;;;10380769;28;20065;-70
2024/01/23 02:32:09;;;;;;;2.38;0.70;;;8.30;99.90;;;;;;10371022;28;20028;-70
2024/01/23 02:37:10;;;;;;;7.00;1.30;;;8.20;99.90;;;;;;10369056;28;20030;-70
2024/01/23 02:42:10;;;;;;;7.82;1.08;;;8.20;99.90;;;;;;10369384;28;20025;-70
2024/01/23 02:47:11;;;;;;;5.75;1.02;;;8.20;99.90;;;;;;10367623;28;20025;-70
2024/01/23 02:52:13;;;;;;;5.38;0.82;;;8.20;99.90;;;;;;10371919;28;20034;-70
2024/01/23 02:57:14;;;;;;;3.42;0.93;;;8.20;99.90;;;;;;10370818;28;20691;-70
2024/01/23 03:02:14;;;;;;;3.35;0.88;;;8.20;99.90;;;;;;10370791;28;20034;-70
2024/01/23 03:07:16;;;;;;;2.08;1.02;;;8.20;99.90;;;;;;10370264;28;20025;-70
2024/01/23 03:12:18;;;;;;;3.08;0.90;;;8.20;99.90;;;;;;10372595;28;20458;-70
2024/01/23 03:17:19;;;;;;;3.63;0.68;;;8.20;99.90;;;;;;10370652;28;20036;-69
2024/01/23 03:22:19;;;;;;;3.45;0.75;;;8.20;99.90;;;;;;10357074;28;20029;-70
2024/01/23 03:27:20;;;;;;;4.35;0.85;;;8.20;99.90;;;;;;10366861;28;20034;-70
2024/01/23 03:32:21;;;;;;;6.07;0.95;;;8.20;99.90;;;;;;10359216;28;20109;-69
2024/01/23 03:37:21;;;;;;;2.30;0.90;;;8.20;99.90;;;;;;10357320;28;20037;-69
2024/01/23 03:42:22;;;;;;;4.38;0.95;;;8.20;99.90;;;;;;10364015;28;20018;-69
2024/01/23 03:47:22;;;;;;;5.45;1.67;;;8.20;99.90;;;;;;10361961;28;20125;-69
2024/01/23 03:52:24;;;;;;;2.13;0.82;;;8.20;99.90;;;;;;10358643;28;20744;-70
2024/01/23 03:57:25;;;;;;;2.38;0.70;;;8.20;99.90;;;;;;10365192;28;20134;-69
2024/01/23 04:02:26;;;;;;;3.83;0.88;;;8.20;99.90;;;;;;10365934;28;20395;-70
2024/01/23 04:07:28;;;;;;;5.20;1.25;;;8.20;99.90;;;;;;10355204;28;20117;-70
2024/01/23 04:12:29;;;;;;;2.58;0.70;;;8.20;99.90;;;;;;10362469;28;20116;-70
2024/01/23 04:17:29;;;;;;;6.70;1.25;;;8.20;99.90;;;;;;10362717;28;20026;-70
2024/01/23 04:22:30;;;;;;;3.67;0.85;;;8.20;99.90;;;;;;10355846;28;20027;-68
2024/01/23 04:27:31;;;;;;;3.42;0.90;;;8.20;99.90;;;;;;10363422;28;20044;-72
2024/01/23 04:32:31;;;;;;;2.60;0.70;;;8.20;99.90;;;;;;10364641;28;20483;-70
2024/01/23 04:37:32;;;;;;;2.42;0.77;;;8.20;99.90;;;;;;10360216;28;20034;-69
2024/01/23 04:42:33;;;;;;;1.95;0.77;;;8.20;99.90;;;;;;10373006;28;20014;-70
2024/01/23 04:47:34;;;;;;;12.43;1.02;;;8.20;99.90;;;;;;10359019;28;20105;-70
2024/01/23 04:52:35;;;;;;;2.05;0.75;;;8.20;99.90;;;;;;10365241;28;20288;-70
2024/01/23 04:57:35;;;;;;;4.28;0.98;;;8.20;99.90;;;;;;10354812;28;20105;-69
2024/01/23 05:02:36;;;;;;;2.45;0.70;;;8.20;99.90;;;;;;10364182;28;20034;-70
2024/01/23 05:07:37;;;;;;;4.15;0.93;;;8.20;99.90;;;;;;10365415;28;20040;-70
2024/01/23 05:12:37;;;;;;;3.95;1.15;;;8.20;99.90;;;;;;10375716;28;20132;-69
2024/01/23 05:17:38;;;;;;;5.07;1.20;;;8.70;99.90;;;;;;10367176;28;20033;-70
2024/01/23 05:22:38;;;;;;;5.55;1.08;;;8.30;99.90;;;;;;10368494;28;20033;-69
2024/01/23 05:27:39;;;;;;;8.40;1.10;;;8.20;99.90;;;;;;10377571;28;20033;-70
2024/01/23 05:32:40;;;;;;;4.95;1.00;;;8.20;99.90;;;;;;10367317;28;20465;-69
2024/01/23 05:37:40;;;;;;;5.60;1.48;;;8.20;99.90;;;;;;10363231;28;20402;-70
2024/01/23 05:42:41;;;;;;;5.30;1.00;;;8.20;99.90;;;;;;10377921;28;20026;-68
2024/01/23 05:47:42;;;;;;;3.78;1.10;;;8.20;99.90;;;;;;10366333;28;20504;-70
2024/01/23 05:52:43;;;;;;;4.15;0.90;;;8.20;99.90;;;;;;10367484;28;20029;-69
2024/01/23 05:57:43;;;;;;;2.72;1.10;;;8.20;99.90;;;;;;10373877;28;20475;-69
2024/01/23 06:02:44;;;;;;;5.30;1.27;;;8.20;99.90;;;;;;10364023;28;20017;-70
2024/01/23 06:07:49;;;;;;;5.30;1.13;;;8.20;99.90;;;;;;10372735;28;20032;-69
2024/01/23 06:12:50;;;;;;;3.28;1.02;;;8.20;99.90;;;;;;10359535;28;20028;-70
2024/01/23 06:17:50;;;;;;;6.70;1.05;;;8.20;99.90;;;;;;10366929;28;20293;-69
2024/01/23 06:22:51;;;;;;;3.95;0.98;;;8.20;99.90;;;;;;10368756;28;20339;-69
2024/01/23 06:27:51;;;;;;;3.25;1.05;;;8.20;99.90;;;;;;10364343;28;20030;-70
2024/01/23 06:32:52;;;;;;;3.25;0.98;;;8.20;99.90;;;;;;10365009;28;20034;-69
2024/01/23 06:37:52;;;;;;;4.30;0.90;;;8.20;99.90;;;;;;10363560;28;20030;-70
2024/01/23 06:42:53;;;;;;;6.70;1.25;;;8.20;99.90;;;;;;10367780;28;20053;-69
2024/01/23 06:47:53;;;;;;;9.50;2.08;;;8.20;99.90;;;;;;10367219;28;20030;-70
2024/01/23 06:52:54;;;;;;;3.47;0.80;;;8.20;99.90;;;;;;10371875;28;20026;-70
2024/01/23 06:57:55;;;;;;;3.63;1.05;;;8.20;99.90;;;;;;10362381;28;20133;-69
2024/01/23 07:02:56;;;;;;;4.55;1.40;;;8.20;99.90;;;;;;10347996;28;20521;-69
2024/01/23 07:07:56;;;;;;;7.43;1.05;;;8.20;99.90;;;;;;10358291;28;20351;-69
2024/01/23 07:12:57;;;;;;;7.70;1.63;;;8.20;99.90;;;;;;10364448;28;20447;-69
2024/01/23 07:17:58;;;;;;;9.32;1.52;;;9.00;99.90;;;;;;10362401;28;20562;-69
2024/01/23 07:22:58;;;;;;;9.00;1.17;;;8.30;99.90;;;;;;10363687;28;20141;-69
2024/01/23 07:27:59;;;;;;;3.30;1.00;;;8.20;99.90;;;;;;10367009;28;20389;-69
2024/01/23 07:32:59;;;;;;;5.63;1.27;;;8.40;99.90;;;;;;10362090;28;20490;-69
2024/01/23 07:38:00;;;;;;;5.63;1.20;;;8.50;99.90;;;;;;10368590;28;20010;-69
2024/01/23 07:43:00;;;;;;;4.32;0.90;;;8.60;99.90;;;;;;10374102;28;20109;-68
2024/01/23 07:48:01;;;;;;;6.88;1.73;;;8.60;99.90;;;;;;10369628;28;20092;-69
2024/01/23 07:53:02;;;;;;;3.65;1.85;;;8.50;99.90;;;;;;10366231;28;20022;-68
2024/01/23 07:58:02;;;;;;;5.80;1.50;;;8.40;99.90;;;;;;10362587;28;20025;-69
2024/01/23 08:03:03;;;;;;;5.38;1.48;;;8.40;99.90;;;;;;10365171;28;20120;-68
2024/01/23 08:08:05;;;;;;;5.85;1.42;;;8.30;99.90;;;;;;10360038;28;20626;-68
2024/01/23 08:13:05;;;;;;;3.78;1.08;;;8.30;99.90;;;;;;10363271;28;20067;-69
2024/01/23 08:18:06;;;;;;;4.40;1.45;;;8.30;99.90;;;;;;10363442;28;20032;-69
2024/01/23 08:23:06;;;;;;;5.15;1.50;;;8.30;99.90;;;;;;10368077;28;20045;-69
2024/01/23 08:28:07;;;;;;;6.65;1.48;;;8.30;99.90;;;;;;10368629;28;20497;-69
2024/01/23 08:33:08;;;;;;;6.47;2.10;;;8.30;99.90;;;;;;10375720;28;20023;-69
2024/01/23 08:38:09;;;;;;;5.88;1.45;;;8.20;99.90;;;;;;10369347;28;20127;-68
2024/01/23 08:43:09;;;;;;;5.30;1.20;;;8.40;99.90;;;;;;10366931;28;20105;-67
2024/01/23 08:48:10;;;;;;;9.38;1.40;;;8.20;99.90;;;;;;10364823;28;20057;-68
2024/01/23 08:53:10;;;;;;;8.60;1.40;;;8.20;99.90;;;;;;10366036;28;20049;-68
2024/01/23 08:58:11;;;;;;;5.25;1.92;;;8.20;99.90;;;;;;10354873;28;20501;-69
2024/01/23 09:03:12;;;;;;;5.55;1.63;;;8.30;99.90;;;;;;10356581;28;20209;-69
2024/01/23 09:08:13;;;;;;;12.73;1.42;;;8.30;99.90;;;;;;10360844;28;20037;-69
2024/01/23 09:13:13;;;;;;;9.40;1.55;;;8.30;99.90;;;;;;10358349;28;20033;-67
2024/01/23 09:18:14;;;;;;;5.45;1.55;;;8.30;99.90;;;;;;10360014;28;20088;-69
2024/01/23 09:23:14;;;;;;;5.45;1.27;;;8.30;99.90;;;;;;10361116;28;20101;-69
2024/01/23 09:28:15;;;;;;;10.38;1.98;;;8.40;99.90;;;;;;10360805;28;20112;-69
2024/01/23 09:33:16;;;;;;;7.70;1.30;;;8.40;99.90;;;;;;10362624;28;20105;-69
2024/01/23 09:38:16;;;;;;;6.65;1.35;;;8.40;99.90;;;;;;10365290;28;20123;-69
2024/01/23 09:43:20;;;;;;;6.72;1.70;;;8.50;99.90;;;;;;10354985;28;20117;-69
2024/01/23 09:48:20;;;;;;;6.82;1.63;;;8.70;99.90;;;;;;10363730;28;20033;-69
2024/01/23 09:53:23;;;;;;;5.07;1.33;;;8.50;99.90;;;;;;10369845;28;20383;-69
2024/01/23 09:58:25;;;;;;;7.45;1.30;;;8.50;99.90;;;;;;10368380;28;20071;-68
2024/01/23 10:03:27;;;;;;;7.18;1.40;;;8.60;99.90;;;;;;10368307;28;20544;-69
2024/01/23 10:08:27;;;;;;;7.25;1.40;;;8.60;99.90;;;;;;10366866;28;20014;-69
2024/01/23 10:13:29;;;;;;;4.82;1.10;;;8.60;99.90;;;;;;10368051;28;20518;-69
2024/01/23 10:18:29;;;;;;;7.32;1.73;;;8.70;99.90;;;;;;10374551;28;20112;-69
2024/01/23 10:23:33;;;;;;;7.43;1.40;;;8.70;99.90;;;;;;10373338;28;20075;-69
2024/01/23 10:28:35;;;;;;;6.38;1.70;;;8.70;99.90;;;;;;10370034;28;20037;-68
2024/01/23 10:33:39;;;;;;;7.70;1.52;;;8.80;99.90;;;;;;10373308;28;20038;-69
2024/01/23 10:38:43;;;;;;;12.02;2.00;;;8.80;99.90;;;;;;10374916;28;20033;-69
2024/01/23 10:43:46;;;;;;;6.45;1.40;;;8.80;99.90;;;;;;10370272;28;20025;-69
2024/01/23 10:48:47;;;;;;;4.85;1.25;;;8.90;99.90;;;;;;10373962;28;20084;-68
2024/01/23 10:53:57;;;;;;;7.63;1.42;;;9.30;99.90;;;;;;10380733;28;20116;-68
2024/01/23 10:59:03;;;;;;;8.95;2.10;;;8.90;99.90;;;;;;10371399;28;20437;-69
2024/01/23 11:04:04;;;;;;;5.50;1.42;;;9.10;99.90;;;;;;10387311;28;20030;-69
2024/01/23 11:09:13;;;;;;;6.40;1.75;;;9.00;99.90;;;;;;10376779;28;20030;-69
2024/01/23 11:14:23;;;;;;;9.95;1.55;;;9.10;99.90;;;;;;10370083;28;20017;-69
2024/01/23 11:19:24;;;;;;;7.93;1.45;;;9.10;99.90;;;;;;10376724;28;20113;-69
2024/01/23 11:24:42;;;;;;;8.85;1.48;;;9.10;99.90;;;;;;10385360;28;20024;-69
2024/01/23 11:29:45;;;;;;;9.57;1.52;;;9.10;99.90;;;;;;10382116;28;20026;-69
2024/01/23 11:34:46;;;;;;;7.80;1.77;;;8.70;99.90;;;;;;10371016;28;20022;-69
2024/01/23 11:39:47;;;;;;;5.40;1.20;;;9.10;99.90;;;;;;10381465;28;20740;-69
2024/01/23 11:44:47;;;;;;;6.78;1.77;;;9.10;99.90;;;;;;10362094;28;20088;-68
2024/01/23 11:49:48;;;;;;;6.75;1.42;;;9.10;99.90;;;;;;10370774;28;20030;-68
2024/01/23 11:54:49;;;;;;;9.07;1.90;;;9.10;99.90;;;;;;10359953;28;20083;-69
2024/01/23 11:59:49;;;;;;;6.72;1.30;;;9.10;99.90;;;;;;10355733;28;20440;-69
2024/01/23 12:04:50;;;;;;;6.43;1.80;;;9.10;99.90;;;;;;10364979;28;20409;-68
2024/01/23 12:09:51;;;;;;;7.90;1.40;;;9.10;99.90;;;;;;10356942;28;20033;-69
2024/01/23 12:14:51;;;;;;;5.78;1.83;;;9.20;99.90;;;;;;10360120;28;20051;-69
2024/01/23 12:19:52;;;;;;;5.80;1.23;;;9.20;99.90;;;;;;10361607;28;20030;-68
2024/01/23 12:24:52;;;;;;;12.88;2.05;;;9.20;99.90;;;;;;10365885;28;20218;-68
2024/01/23 12:29:53;;;;;;;6.72;1.20;;;9.10;99.90;;;;;;10364281;28;20044;-68
2024/01/23 12:34:58;;;;;;;9.30;1.73;;;9.20;99.90;;;;;;10353304;28;20524;-69
2024/01/23 12:40:05;;;;;;;6.03;1.27;;;9.20;99.90;;;;;;10355637;28;20205;-70
2024/01/23 12:45:11;;;;;;;10.30;2.10;;;9.20;99.90;;;;;;10356896;28;20052;-68
2024/01/23 12:50:22;;;;;;;6.43;1.75;;;9.10;99.90;;;;;;10362115;28;20022;-68
2024/01/23 12:55:24;;;;;;;8.13;2.17;;;9.10;99.90;;;;;;10371607;28;20510;-68
2024/01/23 13:00:25;;;;;;;6.57;1.35;;;9.20;99.90;;;;;;10357043;28;20057;-68
2024/01/23 13:05:26;;;;;;;9.48;1.65;;;9.20;99.90;;;;;;10360674;28;20541;-69
2024/01/23 13:10:26;;;;;;;8.98;1.50;;;9.10;99.90;;;;;;10361588;28;20478;-70
2024/01/23 13:15:27;;;;;;;6.90;1.30;;;9.20;99.90;;;;;;10362329;28;20076;-69
2024/01/23 13:20:28;;;;;;;11.40;1.77;;;9.30;99.90;;;;;;10358456;28;20026;-69
2024/01/23 13:25:29;;;;;;;12.15;1.95;;;9.20;99.90;;;;;;10368249;28;20021;-70
2024/01/23 13:30:30;;;;;;;11.15;1.95;;;9.20;99.90;;;;;;10371281;28;20022;-68
2024/01/23 13:35:31;;;;;;;8.48;1.83;;;9.20;99.90;;;;;;10366391;28;20038;-70
2024/01/23 13:40:31;;;;;;;7.60;2.20;;;9.20;99.90;;;;;;10369031;28;20075;-70
2024/01/23 13:45:32;;;;;;;7.75;1.67;;;9.10;99.90;;;;;;10366016;28;20026;-70
2024/01/23 13:50:33;;;;;;;13.45;2.47;;;9.20;99.90;;;;;;10363457;28;20096;-71
2024/01/23 13:55:33;;;;;;;6.35;1.70;;;9.10;99.90;;;;;;10365011;28;20019;-69
2024/01/23 14:00:34;;;;;;;9.70;1.73;;;9.10;99.90;;;;;;10370443;28;20038;-70
2024/01/23 14:05:34;;;;;;;13.60;2.47;;;9.10;99.90;;;;;;10363014;28;20019;-69
2024/01/23 14:10:36;;;;;;;7.90;2.28;;;9.10;99.90;;;;;;10363861;28;20268;-70
2024/01/23 14:15:37;;;;;;;7.38;1.85;;;9.00;99.90;;;;;;10371409;28;20646;-69
2024/01/23 14:20:38;;;;;;;4.90;1.30;;;9.10;99.90;;;;;;10358350;28;20112;-69
2024/01/23 14:25:39;;;;;;;8.80;2.03;;;9.20;99.90;;;;;;10355214;28;20029;-68
2024/01/23 14:30:39;;;;;;;15.20;1.67;;;9.10;99.90;;;;;;10359835;28;20018;-66
2024/01/23 14:35:40;;;;;;;10.18;1.75;;;9.10;99.90;;;;;;10361963;28;20032;-68
2024/01/23 14:40:40;;;;;;;8.95;1.75;;;9.10;99.90;;;;;;10359380;28;20502;-67
2024/01/23 14:45:41;;;;;;;5.30;1.33;;;9.00;99.90;;;;;;10359135;28;20018;-68
2024/01/23 14:50:41;;;;;;;8.35;2.20;;;9.00;99.90;;;;;;10358461;28;20074;-71
2024/01/23 14:55:42;;;;;;;10.88;2.05;;;9.00;99.90;;;;;;10363973;28;20029;-68
2024/01/23 15:00:43;;;;;;;8.55;1.42;;;9.00;99.90;;;;;;10364288;28;20117;-67
2024/01/23 15:05:43;;;;;;;7.53;1.80;;;9.00;99.90;;;;;;10361531;28;20041;-68
2024/01/23 15:10:44;;;;;;;8.02;1.67;;;9.00;99.90;;;;;;10366432;28;20493;-68
2024/01/23 15:15:44;;;;;;;10.85;1.92;;;9.00;99.90;;;;;;10363430;28;20030;-67
2024/01/23 15:20:45;;;;;;;12.05;2.13;;;9.00;99.90;;;;;;10363068;28;20026;-68
2024/01/23 15:25:46;;;;;;;9.63;2.42;;;8.90;99.90;;;;;;10365243;28;20022;-70
2024/01/23 15:30:47;;;;;;;12.57;2.08;;;9.00;99.90;;;;;;10358075;28;20492;-68
2024/01/23 15:35:48;;;;;;;11.13;1.80;;;8.90;99.90;;;;;;10362837;28;20083;-66
2024/01/23 15:40:48;;;;;;;11.07;2.80;;;8.90;99.90;;;;;;10357845;28;20034;-69
2024/01/23 15:45:49;;;;;;;11.30;1.80;;;8.90;99.90;;;;;;10362594;28;20406;-68
2024/01/23 15:50:50;;;;;;;9.32;2.65;;;9.90;99.90;;;;;;10358859;28;20039;-68
2024/01/23 15:55:50;;;;;;;8.70;2.35;;;8.90;99.90;;;;;;10353681;28;20137;-69
2024/01/23 16:00:51;;;;;;;7.07;2.00;;;8.90;99.90;;;;;;10362341;28;20564;-69
2024/01/23 16:05:51;;;;;;;10.57;3.00;;;8.90;99.90;;;;;;10351829;28;20166;-69
2024/01/23 16:10:52;;;;;;;8.23;1.85;;;8.90;99.90;;;;;;10361102;28;20083;-69
2024/01/23 16:15:53;;;;;;;7.35;2.40;;;8.90;99.90;;;;;;10362369;28;20045;-69
2024/01/23 16:20:54;;;;;;;10.63;3.05;;;8.90;99.90;;;;;;10360544;28;20036;-66
2024/01/23 16:25:55;;;;;;;11.82;2.25;;;8.90;99.90;;;;;;10355971;28;20614;-66
2024/01/23 16:30:55;;;;;;;11.05;2.13;;;8.90;99.90;;;;;;10360106;28;20026;-69
2024/01/23 16:35:56;;;;;;;12.23;2.58;;;8.90;99.90;;;;;;10359621;28;20399;-66
2024/01/23 16:40:56;;;;;;;14.88;2.85;;;8.80;99.90;;;;;;10362587;28;20108;-68
2024/01/23 16:45:57;;;;;;;20.30;2.58;;;8.80;99.90;;;;;;10354553;28;20026;-67
2024/01/23 16:50:58;;;;;;;10.75;2.40;;;8.80;99.90;;;;;;10347539;28;20130;-68
2024/01/23 16:55:59;;;;;;;14.45;3.00;;;8.80;99.90;;;;;;10360720;28;20040;-66
2024/01/23 17:01:00;;;;;;;12.80;2.63;;;8.80;99.90;;;;;;10360707;28;20038;-67
2024/01/23 17:06:00;;;;;;;14.15;2.92;;;8.80;99.90;;;;;;10361492;28;20499;-68
2024/01/23 17:11:01;;;;;;;11.95;2.53;;;8.80;99.90;;;;;;10358474;28;20404;-69
2024/01/23 17:16:02;;;;;;;12.32;3.13;;;8.80;99.90;;;;;;10364609;28;20058;-68
2024/01/23 17:21:03;;;;;;;8.43;2.40;;;8.80;99.90;;;;;;10364116;28;20034;-68
2024/01/23 17:26:04;;;;;;;7.72;2.38;;;8.80;99.90;;;;;;10357809;28;20022;-70
2024/01/23 17:31:04;;;;;;;13.52;3.35;;;8.80;99.90;;;;;;10358737;28;20027;-68
2024/01/23 17:36:05;;;;;;;11.02;2.58;;;8.80;99.90;;;;;;10360777;28;20040;-70
2024/01/23 17:41:06;;;;;;;13.88;3.33;;;8.80;99.90;;;;;;10366176;28;20364;-68
2024/01/23 17:46:07;;;;;;;11.52;2.50;;;8.90;99.90;;;;;;10364601;28;20533;-68
2024/01/23 17:51:08;;;;;;;8.05;2.50;;;8.90;99.90;;;;;;10374273;28;20413;-68
2024/01/23 17:56:09;;;;;;;11.25;3.00;;;8.90;99.90;;;;;;10357929;28;20037;-68
2024/01/23 18:01:09;;;;;;;7.60;2.53;;;8.80;99.90;;;;;;10356512;28;20034;-68
2024/01/23 18:06:10;;;;;;;10.45;3.00;;;8.80;99.90;;;;;;10358225;28;20308;-68
2024/01/23 18:11:10;;;;;;;9.07;2.53;;;8.80;99.90;;;;;;10352710;28;20034;-68
2024/01/23 18:16:11;;;;;;;8.05;2.35;;;8.80;99.90;;;;;;10364702;28;20041;-67
2024/01/23 18:21:13;;;;;;;6.28;2.60;;;8.80;99.90;;;;;;10362391;28;20053;-68
2024/01/23 18:26:13;;;;;;;7.15;2.65;;;8.80;99.90;;;;;;10366948;28;20105;-68
2024/01/23 18:31:17;;;;;;;7.03;2.40;;;8.80;99.90;;;;;;10370953;28;20044;-68
2024/01/23 18:36:18;;;;;;;5.25;2.30;;;8.80;99.90;;;;;;10357776;28;20030;-68
2024/01/23 18:41:19;;;;;;;9.48;2.30;;;8.80;99.90;;;;;;10369917;28;20437;-67
2024/01/23 18:46:19;;;;;;;8.10;2.33;;;8.80;99.90;;;;;;10374728;28;20072;-68
2024/01/23 18:51:20;;;;;;;6.75;1.77;;;8.80;99.90;;;;;;10366291;28;20033;-67
2024/01/23 18:56:20;;;;;;;3.92;1.42;;;8.80;99.90;;;;;;10368472;28;20036;-67
2024/01/23 19:01:21;;;;;;;4.32;1.60;;;8.80;99.90;;;;;;10371187;28;20416;-68
2024/01/23 19:06:22;;;;;;;4.13;1.70;;;8.80;99.90;;;;;;10368480;28;20030;-67
2024/01/23 19:11:22;;;;;;;5.10;1.45;;;8.90;99.90;;;;;;10369342;28;20225;-67
2024/01/23 19:16:23;;;;;;;4.72;1.58;;;8.90;99.90;;;;;;10361839;28;20021;-68
2024/01/23 19:21:24;;;;;;;4.70;1.58;;;9.60;99.90;;;;;;10358036;28;20530;-66
2024/01/23 19:26:24;;;;;;;5.28;1.75;;;8.90;99.90;;;;;;10370305;28;20106;-67
2024/01/23 19:31:25;;;;;;;3.13;1.35;;;8.90;99.90;;;;;;10368416;28;20029;-68
2024/01/23 19:36:26;;;;;;;2.72;1.40;;;8.90;99.90;;;;;;10350311;28;20048;-68
2024/01/23 19:41:26;;;;;;;6.28;1.63;;;8.90;99.90;;;;;;10363183;28;20042;-67
2024/01/23 19:46:29;;;;;;;2.22;1.23;;;8.90;99.90;;;;;;10362403;28;20041;-67
2024/01/23 19:51:30;;;;;;;1.95;1.33;;;9.00;99.90;;;;;;10365048;28;20026;-68
2024/01/23 19:56:32;;;;;;;3.00;1.63;;;9.00;99.90;;;;;;10362320;28;20475;-70
2024/01/23 20:01:32;;;;;;;6.28;1.77;;;9.00;99.90;;;;;;10360655;28;20034;-67
2024/01/23 20:06:33;;;;;;;4.20;2.00;;;9.00;99.90;;;;;;10355526;28;20477;-68
2024/01/23 20:11:34;;;;;;;4.20;1.92;;;9.00;99.90;;;;;;10366832;28;20038;-67
2024/01/23 20:16:34;;;;;;;4.03;1.90;;;9.00;99.90;;;;;;10355553;28;20033;-67
2024/01/23 20:21:35;;;;;;;2.92;1.65;;;9.00;99.90;;;;;;10364335;28;20025;-67
2024/01/23 20:26:35;;;;;;;2.63;1.67;;;9.00;99.90;;;;;;10365019;28;20045;-67
2024/01/23 20:31:36;;;;;;;4.57;1.92;;;9.00;99.90;;;;;;10365072;28;20030;-67
2024/01/23 20:36:46;;;;;;;5.95;2.03;;;9.00;99.90;;;;;;10359258;28;20037;-68
2024/01/23 20:41:48;;;;;;;5.43;2.25;;;9.10;99.90;;;;;;10356535;28;20796;-68
2024/01/23 20:46:49;;;;;;;3.83;1.90;;;9.00;99.90;;;;;;10358364;28;20029;-68
2024/01/23 20:51:49;;;;;;;4.32;1.90;;;9.10;99.90;;;;;;10357678;28;20498;-68
2024/01/23 20:56:50;;;;;;;3.45;2.15;;;9.10;99.90;;;;;;10360795;28;20040;-67
2024/01/23 21:01:51;;;;;;;2.90;2.30;;;9.10;99.90;;;;;;10358621;28;20049;-68
2024/01/23 21:06:51;;;;;;;2.78;1.67;;;9.10;99.90;;;;;;10362120;28;20232;-68
2024/01/23 21:11:53;;;;;;;2.90;2.00;;;9.10;99.90;;;;;;10363026;28;20026;-68
2024/01/23 21:16:53;;;;;;;3.40;2.05;;;9.10;99.90;;;;;;10357412;28;20418;-68
2024/01/23 21:21:54;;;;;;;2.92;2.00;;;9.10;99.90;;;;;;10358902;28;20034;-66
2024/01/23 21:26:56;;;;;;;2.90;1.80;;;9.20;99.90;;;;;;10360560;28;20041;-67
2024/01/23 21:31:56;;;;;;;2.38;1.80;;;9.20;99.90;;;;;;10359027;28;20490;-66
2024/01/23 21:36:57;;;;;;;5.20;2.20;;;9.20;99.90;;;;;;10379799;28;20038;-67
2024/01/23 21:41:57;;;;;;;4.55;1.95;;;9.20;99.90;;;;;;10359761;28;20133;-67
2024/01/23 21:46:59;;;;;;;2.92;1.90;;;9.20;99.90;;;;;;10362542;28;20033;-67
2024/01/23 21:51:59;;;;;;;3.20;1.92;;;9.20;99.90;;;;;;10353384;28;20045;-66
2024/01/23 21:57:00;;;;;;;3.53;2.05;;;9.30;99.90;;;;;;10367413;28;20038;-66
2024/01/23 22:02:00;;;;;;;4.00;1.90;;;9.30;99.90;;;;;;10357009;28;20121;-67
2024/01/23 22:07:01;;;;;;;3.05;1.77;;;9.30;99.90;;;;;;10362279;28;20040;-67
2024/01/23 22:12:01;;;;;;;4.00;2.25;;;9.40;99.90;;;;;;10363735;28;20174;-66
2024/01/23 22:17:02;;;;;;;6.25;2.58;;;9.30;99.90;;;;;;10361741;28;20031;-66
2024/01/23 22:22:03;;;;;;;3.97;1.95;;;9.30;99.90;;;;;;10371032;28;20025;-66
2024/01/23 22:27:04;;;;;;;3.90;2.17;;;9.40;99.90;;;;;;10364085;28;20026;-66
2024/01/23 22:32:05;;;;;;;5.95;2.42;;;9.40;99.90;;;;;;10358485;28;20509;-67
2024/01/23 22:37:05;;;;;;;4.50;2.60;;;9.40;99.90;;;;;;10356625;28;20092;-66
2024/01/23 22:42:06;;;;;;;3.72;2.58;;;9.40;99.90;;;;;;10359043;28;20018;-67
2024/01/23 22:47:06;;;;;;;2.78;2.08;;;9.40;99.90;;;;;;10363014;28;20394;-67
2024/01/23 22:52:07;;;;;;;5.05;2.60;;;9.40;99.90;;;;;;10370085;28;20156;-67
2024/01/23 22:57:07;;;;;;;3.70;2.13;;;9.50;99.90;;;;;;10363911;28;20049;-67
2024/01/23 23:02:08;;;;;;;3.10;2.00;;;9.50;99.90;;;;;;10361410;28;20038;-67
2024/01/23 23:07:09;;;;;;;5.03;2.33;;;9.50;99.90;;;;;;10362074;28;20100;-69
2024/01/23 23:12:10;;;;;;;5.10;2.13;;;9.50;99.90;;;;;;10372086;28;20536;-66
2024/01/23 23:17:10;;;;;;;5.05;2.10;;;9.60;99.90;;;;;;10368156;28;20040;-67
2024/01/23 23:22:11;;;;;;;2.78;1.80;;;9.60;99.90;;;;;;10360797;28;20018;-67
2024/01/23 23:27:13;;;;;;;3.17;2.17;;;9.60;99.90;;;;;;10364343;28;20010;-69
2024/01/23 23:32:13;;;;;;;2.30;2.00;;;9.60;99.90;;;;;;10369895;28;20121;-66
2024/01/23 23:37:14;;;;;;;2.97;1.80;;;9.60;99.90;;;;;;10361639;28;20018;-67
2024/01/23 23:42:14;;;;;;;5.28;1.90;;;9.70;99.90;;;;;;10366986;28;20021;-67
2024/01/23 23:47:17;;;;;;;2.80;1.90;;;9.70;99.90;;;;;;10359342;28;20105;-67
2024/01/23 23:52:17;;;;;;;2.70;1.67;;;9.70;99.90;;;;;;10365135;28;20022;-67
2024/01/23 23:57:18;;;;;;;5.38;1.75;;;9.70;99.90;;;;;;10365264;28;20410;-66
